sensor_id;sensor_type;location;lat;lon;timestamp;pressure;altitude;pressure_sealevel;temperature;humidity
48015;BME280;33780;51.034;7.120;2023-05-19T00:00:30;101666.13;;;13.53;52.16
48015;BME280;33780;51.034;7.120;2023-05-19T00:02:57;101657.47;;;13.49;52.47
48015;BME280;33780;51.034;7.120;2023-05-19T00:05:24;101662.22;;;13.46;52.65
48015;BME280;33780;51.034;7.120;2023-05-19T00:07:50;101659.81;;;13.43;52.16
48015;BME280;33780;51.034;7.120;2023-05-19T00:10:17;101655.66;;;13.39;52.46
48015;BME280;33780;51.034;7.120;2023-05-19T00:12:43;101668.50;;;13.35;52.51
48015;BME280;33780;51.034;7.120;2023-05-19T00:15:09;101664.50;;;13.29;52.74
48015;BME280;33780;51.034;7.120;2023-05-19T00:17:35;101657.66;;;13.25;52.74
48015;BME280;33780;51.034;7.120;2023-05-19T00:20:01;101663.16;;;13.24;53.02
48015;BME280;33780;51.034;7.120;2023-05-19T00:22:31;101661.72;;;13.20;52.59
48015;BME280;33780;51.034;7.120;2023-05-19T00:24:56;101655.69;;;13.16;52.99
48015;BME280;33780;51.034;7.120;2023-05-19T00:27:21;101659.63;;;13.12;53.02
48015;BME280;33780;51.034;7.120;2023-05-19T00:29:47;101654.47;;;13.09;52.93
48015;BME280;33780;51.034;7.120;2023-05-19T00:32:12;101665.34;;;13.08;53.12
48015;BME280;33780;51.034;7.120;2023-05-19T00:34:37;101659.38;;;13.04;53.00
48015;BME280;33780;51.034;7.120;2023-05-19T00:37:03;101657.94;;;13.00;53.21
48015;BME280;33780;51.034;7.120;2023-05-19T00:39:28;101658.19;;;12.97;53.20
48015;BME280;33780;51.034;7.120;2023-05-19T00:41:53;101661.22;;;12.92;53.39
48015;BME280;33780;51.034;7.120;2023-05-19T00:44:18;101657.94;;;12.89;53.62
48015;BME280;33780;51.034;7.120;2023-05-19T00:46:44;101653.78;;;12.85;53.71
48015;BME280;33780;51.034;7.120;2023-05-19T00:49:09;101655.88;;;12.81;53.15
48015;BME280;33780;51.034;7.120;2023-05-19T00:51:34;101659.78;;;12.77;53.70
48015;BME280;33780;51.034;7.120;2023-05-19T00:54:01;101652.94;;;12.73;53.55
48015;BME280;33780;51.034;7.120;2023-05-19T00:56:26;101664.78;;;12.70;53.55
48015;BME280;33780;51.034;7.120;2023-05-19T00:58:52;101662.34;;;12.67;53.70
48015;BME280;33780;51.034;7.120;2023-05-19T01:01:17;101668.94;;;12.63;54.19
48015;BME280;33780;51.034;7.120;2023-05-19T01:03:45;101665.78;;;12.58;53.56
48015;BME280;33780;51.034;7.120;2023-05-19T01:06:12;101669.53;;;12.56;54.23
48015;BME280;33780;51.034;7.120;2023-05-19T01:08:37;101661.84;;;12.51;54.12
48015;BME280;33780;51.034;7.120;2023-05-19T01:11:04;101667.47;;;12.48;53.96
48015;BME280;33780;51.034;7.120;2023-05-19T01:13:30;101657.81;;;12.46;53.67
48015;BME280;33780;51.034;7.120;2023-05-19T01:16:04;101666.25;;;12.41;53.82
48015;BME280;33780;51.034;7.120;2023-05-19T01:18:39;101659.38;;;12.37;54.36
48015;BME280;33780;51.034;7.120;2023-05-19T01:32:40;101648.88;;;12.12;54.57
48015;BME280;33780;51.034;7.120;2023-05-19T01:35:06;101645.56;;;12.08;54.80
48015;BME280;33780;51.034;7.120;2023-05-19T01:37:33;101648.50;;;12.05;54.96
48015;BME280;33780;51.034;7.120;2023-05-19T01:39:59;101645.06;;;12.03;54.74
48015;BME280;33780;51.034;7.120;2023-05-19T01:42:25;101645.28;;;12.00;54.87
48015;BME280;33780;51.034;7.120;2023-05-19T01:44:51;101654.56;;;11.96;54.99
48015;BME280;33780;51.034;7.120;2023-05-19T01:47:17;101646.75;;;11.93;55.05
48015;BME280;33780;51.034;7.120;2023-05-19T01:49:43;101655.16;;;11.88;54.72
48015;BME280;33780;51.034;7.120;2023-05-19T01:52:08;101646.56;;;11.83;55.20
48015;BME280;33780;51.034;7.120;2023-05-19T01:54:34;101649.50;;;11.80;55.37
48015;BME280;33780;51.034;7.120;2023-05-19T02:02:36;101648.47;;;11.70;55.41
48015;BME280;33780;51.034;7.120;2023-05-19T02:05:22;101660.50;;;11.64;55.97
48015;BME280;33780;51.034;7.120;2023-05-19T02:08:17;101659.25;;;11.57;56.88
48015;BME280;33780;51.034;7.120;2023-05-19T02:10:50;101658.63;;;11.54;55.61
48015;BME280;33780;51.034;7.120;2023-05-19T02:13:20;101662.53;;;11.49;55.59
48015;BME280;33780;51.034;7.120;2023-05-19T02:15:48;101655.41;;;11.48;55.96
48015;BME280;33780;51.034;7.120;2023-05-19T02:18:15;101659.19;;;11.46;55.78
48015;BME280;33780;51.034;7.120;2023-05-19T02:20:42;101662.09;;;11.43;55.91
48015;BME280;33780;51.034;7.120;2023-05-19T02:23:07;101656.84;;;11.41;55.85
48015;BME280;33780;51.034;7.120;2023-05-19T02:25:32;101651.72;;;11.38;56.02
48015;BME280;33780;51.034;7.120;2023-05-19T02:27:58;101656.47;;;11.35;56.21
48015;BME280;33780;51.034;7.120;2023-05-19T02:30:23;101659.25;;;11.33;56.53
48015;BME280;33780;51.034;7.120;2023-05-19T02:32:48;101662.16;;;11.30;56.22
48015;BME280;33780;51.034;7.120;2023-05-19T02:35:14;101663.34;;;11.26;56.69
48015;BME280;33780;51.034;7.120;2023-05-19T02:37:39;101661.88;;;11.22;57.03
48015;BME280;33780;51.034;7.120;2023-05-19T02:40:05;101654.91;;;11.19;56.49
48015;BME280;33780;51.034;7.120;2023-05-19T02:42:30;101657.72;;;11.18;56.80
48015;BME280;33780;51.034;7.120;2023-05-19T02:44:56;101656.97;;;11.16;56.82
48015;BME280;33780;51.034;7.120;2023-05-19T02:47:21;101658.06;;;11.13;57.21
48015;BME280;33780;51.034;7.120;2023-05-19T02:49:46;101657.41;;;11.10;57.05
48015;BME280;33780;51.034;7.120;2023-05-19T02:52:12;101648.75;;;11.06;57.35
48015;BME280;33780;51.034;7.120;2023-05-19T02:54:37;101652.28;;;11.07;57.03
48015;BME280;33780;51.034;7.120;2023-05-19T02:57:02;101651.53;;;11.05;57.27
48015;BME280;33780;51.034;7.120;2023-05-19T02:59:28;101647.25;;;11.02;57.08
48015;BME280;33780;51.034;7.120;2023-05-19T03:01:58;101644.69;;;11.01;57.32
48015;BME280;33780;51.034;7.120;2023-05-19T03:04:24;101647.59;;;10.98;57.64
48015;BME280;33780;51.034;7.120;2023-05-19T03:06:49;101631.72;;;10.95;57.61
48015;BME280;33780;51.034;7.120;2023-05-19T03:09:14;101630.88;;;10.94;57.81
48015;BME280;33780;51.034;7.120;2023-05-19T03:11:40;101633.66;;;10.93;57.53
48015;BME280;33780;51.034;7.120;2023-05-19T03:14:05;101641.81;;;10.91;57.83
48015;BME280;33780;51.034;7.120;2023-05-19T03:16:30;101633.91;;;10.89;58.01
48015;BME280;33780;51.034;7.120;2023-05-19T03:18:56;101636.69;;;10.88;57.41
48015;BME280;33780;51.034;7.120;2023-05-19T03:21:21;101632.41;;;10.85;57.57
48015;BME280;33780;51.034;7.120;2023-05-19T03:23:47;101630.69;;;10.84;57.47
48015;BME280;33780;51.034;7.120;2023-05-19T03:26:12;101633.50;;;10.83;57.62
48015;BME280;33780;51.034;7.120;2023-05-19T03:28:37;101639.06;;;10.80;57.68
48015;BME280;33780;51.034;7.120;2023-05-19T03:31:03;101638.34;;;10.78;57.77
48015;BME280;33780;51.034;7.120;2023-05-19T03:33:28;101649.25;;;10.75;58.16
48015;BME280;33780;51.034;7.120;2023-05-19T03:35:55;101645.94;;;10.71;57.96
48015;BME280;33780;51.034;7.120;2023-05-19T03:38:20;101654.06;;;10.70;57.88
48015;BME280;33780;51.034;7.120;2023-05-19T03:40:45;101645.31;;;10.68;58.51
48015;BME280;33780;51.034;7.120;2023-05-19T03:43:11;101646.38;;;10.65;58.16
48015;BME280;33780;51.034;7.120;2023-05-19T03:45:36;101647.34;;;10.64;58.26
48015;BME280;33780;51.034;7.120;2023-05-19T03:48:01;101649.28;;;10.62;58.21
48015;BME280;33780;51.034;7.120;2023-05-19T03:50:26;101644.91;;;10.61;58.21
48015;BME280;33780;51.034;7.120;2023-05-19T03:52:53;101645.94;;;10.58;58.10
48015;BME280;33780;51.034;7.120;2023-05-19T03:55:19;101647.88;;;10.56;58.49
48015;BME280;33780;51.034;7.120;2023-05-19T03:57:45;101641.78;;;10.54;58.87
48015;BME280;33780;51.034;7.120;2023-05-19T04:00:11;101637.50;;;10.52;58.42
48015;BME280;33780;51.034;7.120;2023-05-19T04:02:36;101642.00;;;10.51;58.28
48015;BME280;33780;51.034;7.120;2023-05-19T04:05:02;101635.06;;;10.49;58.56
48015;BME280;33780;51.034;7.120;2023-05-19T04:07:29;101645.75;;;10.49;58.70
48015;BME280;33780;51.034;7.120;2023-05-19T04:09:55;101639.66;;;10.47;58.87
48015;BME280;33780;51.034;7.120;2023-05-19T04:12:20;101638.16;;;10.43;59.15
48015;BME280;33780;51.034;7.120;2023-05-19T04:14:45;101646.31;;;10.41;58.87
48015;BME280;33780;51.034;7.120;2023-05-19T04:17:11;101644.69;;;10.39;59.18
48015;BME280;33780;51.034;7.120;2023-05-19T04:19:36;101648.31;;;10.38;58.98
48015;BME280;33780;51.034;7.120;2023-05-19T04:22:01;101644.91;;;10.36;59.42
48015;BME280;33780;51.034;7.120;2023-05-19T04:24:27;101644.03;;;10.35;59.37
48015;BME280;33780;51.034;7.120;2023-05-19T04:26:52;101643.06;;;10.36;59.31
48015;BME280;33780;51.034;7.120;2023-05-19T04:29:17;101642.22;;;10.36;59.36
48015;BME280;33780;51.034;7.120;2023-05-19T04:31:43;101648.53;;;10.35;59.10
48015;BME280;33780;51.034;7.120;2023-05-19T04:34:09;101649.28;;;10.37;59.14
48015;BME280;33780;51.034;7.120;2023-05-19T04:36:35;101644.78;;;10.37;59.86
48015;BME280;33780;51.034;7.120;2023-05-19T04:39:01;101648.31;;;10.38;59.19
48015;BME280;33780;51.034;7.120;2023-05-19T04:41:27;101642.97;;;10.38;59.53
48015;BME280;33780;51.034;7.120;2023-05-19T04:43:53;101637.50;;;10.39;59.41
48015;BME280;33780;51.034;7.120;2023-05-19T04:46:21;101640.19;;;10.39;59.34
48015;BME280;33780;51.034;7.120;2023-05-19T04:48:49;101643.72;;;10.40;59.29
48015;BME280;33780;51.034;7.120;2023-05-19T04:51:15;101644.50;;;10.42;59.31
48015;BME280;33780;51.034;7.120;2023-05-19T04:53:41;101648.88;;;10.43;59.48
48015;BME280;33780;51.034;7.120;2023-05-19T04:56:08;101646.09;;;10.44;59.52
48015;BME280;33780;51.034;7.120;2023-05-19T04:58:33;101650.47;;;10.45;59.58
48015;BME280;33780;51.034;7.120;2023-05-19T05:00:59;101636.25;;;10.45;60.02
48015;BME280;33780;51.034;7.120;2023-05-19T05:03:24;101637.94;;;10.46;59.81
48015;BME280;33780;51.034;7.120;2023-05-19T05:05:50;101639.66;;;10.47;60.31
48015;BME280;33780;51.034;7.120;2023-05-19T05:08:16;101645.00;;;10.47;60.14
48015;BME280;33780;51.034;7.120;2023-05-19T05:10:48;101644.78;;;10.50;60.00
48015;BME280;33780;51.034;7.120;2023-05-19T05:13:14;101647.25;;;10.53;60.01
48015;BME280;33780;51.034;7.120;2023-05-19T05:15:40;101646.16;;;10.55;60.05
48015;BME280;33780;51.034;7.120;2023-05-19T05:18:05;101651.28;;;10.58;60.01
48015;BME280;33780;51.034;7.120;2023-05-19T05:20:31;101643.06;;;10.62;59.78
48015;BME280;33780;51.034;7.120;2023-05-19T05:22:56;101649.16;;;10.64;60.18
48015;BME280;33780;51.034;7.120;2023-05-19T05:25:22;101643.59;;;10.67;60.35
48015;BME280;33780;51.034;7.120;2023-05-19T05:27:47;101642.50;;;10.69;60.21
48015;BME280;33780;51.034;7.120;2023-05-19T05:30:13;101642.28;;;10.72;60.62
48015;BME280;33780;51.034;7.120;2023-05-19T05:32:38;101642.16;;;10.74;60.61
48015;BME280;33780;51.034;7.120;2023-05-19T05:35:04;101644.53;;;10.78;60.46
48015;BME280;33780;51.034;7.120;2023-05-19T05:37:29;101649.56;;;10.83;60.74
48015;BME280;33780;51.034;7.120;2023-05-19T05:39:55;101644.94;;;10.85;60.63
48015;BME280;33780;51.034;7.120;2023-05-19T05:42:20;101648.13;;;10.90;60.58
48015;BME280;33780;51.034;7.120;2023-05-19T05:44:45;101645.13;;;10.95;60.62
48015;BME280;33780;51.034;7.120;2023-05-19T05:47:11;101649.19;;;11.00;60.87
48015;BME280;33780;51.034;7.120;2023-05-19T05:49:37;101642.63;;;11.04;60.86
48015;BME280;33780;51.034;7.120;2023-05-19T05:52:04;101638.66;;;11.10;60.94
48015;BME280;33780;51.034;7.120;2023-05-19T05:54:29;101637.47;;;11.14;60.70
48015;BME280;33780;51.034;7.120;2023-05-19T05:56:55;101637.13;;;11.18;60.90
48015;BME280;33780;51.034;7.120;2023-05-19T05:59:21;101634.00;;;11.25;60.74
48015;BME280;33780;51.034;7.120;2023-05-19T06:01:46;101643.38;;;11.30;60.92
48015;BME280;33780;51.034;7.120;2023-05-19T06:04:11;101640.38;;;11.35;60.95
48015;BME280;33780;51.034;7.120;2023-05-19T06:06:36;101638.22;;;11.40;60.93
48015;BME280;33780;51.034;7.120;2023-05-19T06:09:02;101632.38;;;11.46;60.88
48015;BME280;33780;51.034;7.120;2023-05-19T06:11:28;101626.47;;;11.54;60.37
48015;BME280;33780;51.034;7.120;2023-05-19T06:13:53;101630.38;;;11.61;60.32
48015;BME280;33780;51.034;7.120;2023-05-19T06:16:18;101622.84;;;11.66;60.53
48015;BME280;33780;51.034;7.120;2023-05-19T06:18:43;101631.28;;;11.72;60.21
48015;BME280;33780;51.034;7.120;2023-05-19T06:21:09;101619.22;;;11.78;60.05
48015;BME280;33780;51.034;7.120;2023-05-19T06:23:35;101621.59;;;11.83;59.97
48015;BME280;33780;51.034;7.120;2023-05-19T06:26:00;101620.41;;;11.87;59.15
48015;BME280;33780;51.034;7.120;2023-05-19T06:28:25;101624.31;;;11.94;59.36
48015;BME280;33780;51.034;7.120;2023-05-19T06:30:51;101614.69;;;12.02;59.26
48015;BME280;33780;51.034;7.120;2023-05-19T06:33:16;101615.06;;;12.09;59.01
48015;BME280;33780;51.034;7.120;2023-05-19T06:35:41;101614.47;;;12.17;59.34
48015;BME280;33780;51.034;7.120;2023-05-19T06:38:06;101618.41;;;12.24;59.34
48015;BME280;33780;51.034;7.120;2023-05-19T06:40:32;101612.53;;;12.30;58.80
48015;BME280;33780;51.034;7.120;2023-05-19T06:42:57;101618.13;;;12.38;58.81
48015;BME280;33780;51.034;7.120;2023-05-19T06:45:22;101623.03;;;12.44;58.49
48015;BME280;33780;51.034;7.120;2023-05-19T06:47:48;101618.03;;;12.51;57.93
48015;BME280;33780;51.034;7.120;2023-05-19T06:50:13;101611.22;;;12.58;57.82
48015;BME280;33780;51.034;7.120;2023-05-19T06:52:39;101615.09;;;12.65;57.66
48015;BME280;33780;51.034;7.120;2023-05-19T06:55:04;101617.16;;;12.73;57.92
48015;BME280;33780;51.034;7.120;2023-05-19T06:57:30;101624.75;;;12.79;57.54
48015;BME280;33780;51.034;7.120;2023-05-19T06:59:55;101618.88;;;12.85;57.25
48015;BME280;33780;51.034;7.120;2023-05-19T07:02:21;101619.22;;;12.91;57.31
48015;BME280;33780;51.034;7.120;2023-05-19T07:04:46;101622.41;;;12.96;57.25
48015;BME280;33780;51.034;7.120;2023-05-19T07:07:12;101619.91;;;13.05;56.97
48015;BME280;33780;51.034;7.120;2023-05-19T07:09:37;101613.19;;;13.10;56.30
48015;BME280;33780;51.034;7.120;2023-05-19T07:12:02;101614.53;;;13.16;56.22
48015;BME280;33780;51.034;7.120;2023-05-19T07:14:27;101606.97;;;13.21;56.09
48015;BME280;33780;51.034;7.120;2023-05-19T07:16:53;101611.94;;;13.25;55.56
48015;BME280;33780;51.034;7.120;2023-05-19T07:19:18;101612.44;;;13.30;55.60
48015;BME280;33780;51.034;7.120;2023-05-19T07:21:44;101615.47;;;13.37;56.08
48015;BME280;33780;51.034;7.120;2023-05-19T07:24:10;101607.88;;;13.42;55.04
48015;BME280;33780;51.034;7.120;2023-05-19T07:26:35;101606.53;;;13.48;55.24
48015;BME280;33780;51.034;7.120;2023-05-19T07:29:00;101611.50;;;13.52;53.60
48015;BME280;33780;51.034;7.120;2023-05-19T07:31:25;101610.72;;;13.61;53.97
48015;BME280;33780;51.034;7.120;2023-05-19T07:33:51;101611.19;;;13.67;54.35
48015;BME280;33780;51.034;7.120;2023-05-19T07:36:16;101604.31;;;13.74;54.14
48015;BME280;33780;51.034;7.120;2023-05-19T07:38:41;101602.31;;;13.76;52.03
48015;BME280;33780;51.034;7.120;2023-05-19T07:41:06;101605.38;;;13.82;53.72
48015;BME280;33780;51.034;7.120;2023-05-19T07:43:32;101596.75;;;13.88;54.01
48015;BME280;33780;51.034;7.120;2023-05-19T07:45:57;101599.78;;;13.95;53.64
48015;BME280;33780;51.034;7.120;2023-05-19T07:48:22;101603.66;;;14.02;53.61
48015;BME280;33780;51.034;7.120;2023-05-19T07:50:50;101608.50;;;14.08;53.19
48015;BME280;33780;51.034;7.120;2023-05-19T07:53:17;101605.25;;;14.14;53.30
48015;BME280;33780;51.034;7.120;2023-05-19T07:55:42;101603.06;;;14.19;51.93
48015;BME280;33780;51.034;7.120;2023-05-19T07:58:07;101597.38;;;14.23;50.68
48015;BME280;33780;51.034;7.120;2023-05-19T08:00:32;101592.44;;;14.28;51.04
48015;BME280;33780;51.034;7.120;2023-05-19T08:02:58;101593.50;;;14.36;51.52
48015;BME280;33780;51.034;7.120;2023-05-19T08:05:23;101586.72;;;14.42;51.67
48015;BME280;33780;51.034;7.120;2023-05-19T08:07:50;101584.50;;;14.47;51.38
48015;BME280;33780;51.034;7.120;2023-05-19T08:10:15;101581.25;;;14.53;51.12
48015;BME280;33780;51.034;7.120;2023-05-19T08:12:40;101571.91;;;14.57;51.70
48015;BME280;33780;51.034;7.120;2023-05-19T08:15:06;101578.59;;;14.63;50.89
48015;BME280;33780;51.034;7.120;2023-05-19T08:17:32;101579.03;;;14.68;48.81
48015;BME280;33780;51.034;7.120;2023-05-19T08:19:57;101570.66;;;14.71;48.64
48015;BME280;33780;51.034;7.120;2023-05-19T08:22:24;101571.97;;;14.76;49.16
48015;BME280;33780;51.034;7.120;2023-05-19T08:24:49;101582.34;;;14.81;49.13
48015;BME280;33780;51.034;7.120;2023-05-19T08:27:15;101571.28;;;14.84;49.12
48015;BME280;33780;51.034;7.120;2023-05-19T08:29:41;101575.25;;;14.90;49.10
48015;BME280;33780;51.034;7.120;2023-05-19T08:32:06;101563.94;;;14.96;48.84
48015;BME280;33780;51.034;7.120;2023-05-19T08:34:32;101562.50;;;15.01;48.91
48015;BME280;33780;51.034;7.120;2023-05-19T08:36:57;101562.09;;;15.06;49.25
48015;BME280;33780;51.034;7.120;2023-05-19T08:39:24;101556.16;;;15.12;49.28
48015;BME280;33780;51.034;7.120;2023-05-19T08:41:54;101554.00;;;15.16;46.81
48015;BME280;33780;51.034;7.120;2023-05-19T08:44:19;101548.75;;;15.24;48.86
48015;BME280;33780;51.034;7.120;2023-05-19T08:46:46;101551.47;;;15.33;48.46
48015;BME280;33780;51.034;7.120;2023-05-19T08:49:13;101537.25;;;15.41;48.12
48015;BME280;33780;51.034;7.120;2023-05-19T08:51:45;101547.19;;;15.50;48.42
48015;BME280;33780;51.034;7.120;2023-05-19T08:54:16;101532.88;;;15.59;49.50
48015;BME280;33780;51.034;7.120;2023-05-19T08:56:43;101540.25;;;15.67;48.08
48015;BME280;33780;51.034;7.120;2023-05-19T08:59:10;101541.22;;;15.76;47.95
48015;BME280;33780;51.034;7.120;2023-05-19T09:01:36;101535.13;;;15.83;45.34
48015;BME280;33780;51.034;7.120;2023-05-19T09:04:02;101536.91;;;15.92;46.11
48015;BME280;33780;51.034;7.120;2023-05-19T09:06:27;101530.66;;;16.01;46.90
48015;BME280;33780;51.034;7.120;2023-05-19T09:08:56;101532.59;;;16.09;47.21
48015;BME280;33780;51.034;7.120;2023-05-19T09:11:21;101522.09;;;16.16;46.43
48015;BME280;33780;51.034;7.120;2023-05-19T09:13:47;101529.59;;;16.22;45.83
48015;BME280;33780;51.034;7.120;2023-05-19T09:16:13;101528.13;;;16.27;45.17
48015;BME280;33780;51.034;7.120;2023-05-19T09:18:39;101522.28;;;16.32;46.24
48015;BME280;33780;51.034;7.120;2023-05-19T09:21:05;101519.84;;;16.39;46.34
48015;BME280;33780;51.034;7.120;2023-05-19T09:23:31;101517.84;;;16.41;44.80
48015;BME280;33780;51.034;7.120;2023-05-19T09:26:04;101507.41;;;16.46;45.36
48015;BME280;33780;51.034;7.120;2023-05-19T09:28:33;101519.63;;;16.50;46.30
48015;BME280;33780;51.034;7.120;2023-05-19T09:31:07;101502.53;;;16.59;46.62
48015;BME280;33780;51.034;7.120;2023-05-19T09:33:34;101509.00;;;16.66;46.71
48015;BME280;33780;51.034;7.120;2023-05-19T09:36:00;101502.63;;;16.67;44.48
48015;BME280;33780;51.034;7.120;2023-05-19T09:38:26;101507.44;;;16.73;45.27
48015;BME280;33780;51.034;7.120;2023-05-19T09:40:55;101503.44;;;16.77;45.71
48015;BME280;33780;51.034;7.120;2023-05-19T09:43:22;101497.72;;;16.80;45.46
48015;BME280;33780;51.034;7.120;2023-05-19T09:45:48;101490.81;;;16.86;46.17
48015;BME280;33780;51.034;7.120;2023-05-19T09:48:14;101498.94;;;16.86;44.65
48015;BME280;33780;51.034;7.120;2023-05-19T09:50:42;101503.75;;;16.92;45.33
48015;BME280;33780;51.034;7.120;2023-05-19T09:53:12;101488.22;;;16.94;45.49
48015;BME280;33780;51.034;7.120;2023-05-19T09:55:38;101492.47;;;16.97;44.97
48015;BME280;33780;51.034;7.120;2023-05-19T09:58:05;101488.59;;;16.99;44.10
48015;BME280;33780;51.034;7.120;2023-05-19T10:00:31;101487.00;;;17.06;44.71
48015;BME280;33780;51.034;7.120;2023-05-19T10:02:58;101487.75;;;17.16;44.75
48015;BME280;33780;51.034;7.120;2023-05-19T10:05:25;101495.38;;;17.21;44.89
48015;BME280;33780;51.034;7.120;2023-05-19T10:07:52;101486.41;;;17.20;43.88
48015;BME280;33780;51.034;7.120;2023-05-19T10:10:19;101489.81;;;17.22;44.09
48015;BME280;33780;51.034;7.120;2023-05-19T10:12:45;101487.09;;;17.22;41.17
48015;BME280;33780;51.034;7.120;2023-05-19T10:15:12;101478.91;;;17.32;43.80
48015;BME280;33780;51.034;7.120;2023-05-19T10:17:40;101491.06;;;17.28;43.20
48015;BME280;33780;51.034;7.120;2023-05-19T10:20:07;101483.56;;;17.22;40.04
48015;BME280;33780;51.034;7.120;2023-05-19T10:22:33;101475.84;;;17.27;42.59
48015;BME280;33780;51.034;7.120;2023-05-19T10:24:59;101476.00;;;17.26;42.35
48015;BME280;33780;51.034;7.120;2023-05-19T10:27:25;101479.84;;;17.23;43.00
48015;BME280;33780;51.034;7.120;2023-05-19T10:29:54;101478.56;;;17.27;42.14
48015;BME280;33780;51.034;7.120;2023-05-19T10:32:27;101478.06;;;17.32;40.92
48015;BME280;33780;51.034;7.120;2023-05-19T10:35:13;101472.03;;;17.38;40.40
48015;BME280;33780;51.034;7.120;2023-05-19T10:37:45;101475.56;;;17.38;40.19
48015;BME280;33780;51.034;7.120;2023-05-19T10:40:36;101466.00;;;17.44;41.47
48015;BME280;33780;51.034;7.120;2023-05-19T10:43:14;101460.75;;;17.42;41.57
48015;BME280;33780;51.034;7.120;2023-05-19T10:45:46;101458.88;;;17.43;40.01
48015;BME280;33780;51.034;7.120;2023-05-19T10:48:15;101461.28;;;17.46;40.66
48015;BME280;33780;51.034;7.120;2023-05-19T10:50:44;101467.75;;;17.53;40.79
48015;BME280;33780;51.034;7.120;2023-05-19T10:53:17;101458.69;;;17.62;40.89
48015;BME280;33780;51.034;7.120;2023-05-19T10:58:11;101456.09;;;17.78;40.96
48015;BME280;33780;51.034;7.120;2023-05-19T11:00:38;101451.56;;;17.87;41.55
48015;BME280;33780;51.034;7.120;2023-05-19T11:03:14;101456.03;;;17.96;40.09
48015;BME280;33780;51.034;7.120;2023-05-19T11:05:40;101452.66;;;18.02;40.25
48015;BME280;33780;51.034;7.120;2023-05-19T11:08:06;101445.91;;;18.06;39.77
48015;BME280;33780;51.034;7.120;2023-05-19T11:10:33;101445.97;;;18.15;40.66
48015;BME280;33780;51.034;7.120;2023-05-19T11:12:58;101439.53;;;18.16;39.06
48015;BME280;33780;51.034;7.120;2023-05-19T11:15:25;101442.41;;;18.22;40.01
48015;BME280;33780;51.034;7.120;2023-05-19T11:17:52;101438.75;;;18.31;40.00
48015;BME280;33780;51.034;7.120;2023-05-19T11:20:25;101446.69;;;18.33;37.72
48015;BME280;33780;51.034;7.120;2023-05-19T11:23:09;101440.28;;;18.42;38.78
48015;BME280;33780;51.034;7.120;2023-05-19T11:28:09;101439.13;;;18.53;39.82
48015;BME280;33780;51.034;7.120;2023-05-19T11:30:34;101437.78;;;18.57;39.80
48015;BME280;33780;51.034;7.120;2023-05-19T11:32:59;101434.09;;;18.66;40.63
48015;BME280;33780;51.034;7.120;2023-05-19T11:35:26;101426.16;;;18.73;40.49
48015;BME280;33780;51.034;7.120;2023-05-19T11:37:55;101430.88;;;18.79;38.51
48015;BME280;33780;51.034;7.120;2023-05-19T11:40:21;101416.50;;;18.86;39.40
48015;BME280;33780;51.034;7.120;2023-05-19T11:42:47;101421.94;;;18.94;39.71
48015;BME280;33780;51.034;7.120;2023-05-19T11:45:12;101426.50;;;19.02;40.01
48015;BME280;33780;51.034;7.120;2023-05-19T11:47:37;101419.22;;;19.11;40.50
48015;BME280;33780;51.034;7.120;2023-05-19T11:50:03;101415.81;;;19.17;39.25
48015;BME280;33780;51.034;7.120;2023-05-19T11:52:28;101416.84;;;19.24;39.32
48015;BME280;33780;51.034;7.120;2023-05-19T11:54:58;101423.78;;;19.26;38.00
48015;BME280;33780;51.034;7.120;2023-05-19T11:59:56;101406.63;;;19.34;36.61
48015;BME280;33780;51.034;7.120;2023-05-19T12:02:24;101407.13;;;19.38;37.65
48015;BME280;33780;51.034;7.120;2023-05-19T12:04:51;101403.25;;;19.40;38.23
48015;BME280;33780;51.034;7.120;2023-05-19T12:07:18;101398.13;;;19.45;38.15
48015;BME280;33780;51.034;7.120;2023-05-19T12:09:45;101400.69;;;19.39;37.24
48015;BME280;33780;51.034;7.120;2023-05-19T12:12:21;101393.22;;;19.41;38.09
48015;BME280;33780;51.034;7.120;2023-05-19T12:14:48;101390.00;;;19.45;37.46
48015;BME280;33780;51.034;7.120;2023-05-19T12:17:18;101383.72;;;19.45;36.88
48015;BME280;33780;51.034;7.120;2023-05-19T12:19:46;101376.56;;;19.52;37.85
48015;BME280;33780;51.034;7.120;2023-05-19T12:22:12;101379.47;;;19.58;37.66
48015;BME280;33780;51.034;7.120;2023-05-19T12:24:38;101384.88;;;19.67;38.33
48015;BME280;33780;51.034;7.120;2023-05-19T12:27:19;101379.41;;;19.75;37.50
48015;BME280;33780;51.034;7.120;2023-05-19T12:29:53;101381.44;;;19.81;37.70
48015;BME280;33780;51.034;7.120;2023-05-19T12:32:23;101379.06;;;19.78;36.71
48015;BME280;33780;51.034;7.120;2023-05-19T12:34:50;101369.72;;;19.72;37.56
48015;BME280;33780;51.034;7.120;2023-05-19T12:37:15;101363.31;;;19.65;37.64
48015;BME280;33780;51.034;7.120;2023-05-19T12:39:41;101370.81;;;19.63;37.90
48015;BME280;33780;51.034;7.120;2023-05-19T12:42:07;101371.50;;;19.57;37.45
48015;BME280;33780;51.034;7.120;2023-05-19T12:44:49;101368.41;;;19.52;36.64
48015;BME280;33780;51.034;7.120;2023-05-19T12:47:18;101363.69;;;19.54;35.97
48015;BME280;33780;51.034;7.120;2023-05-19T12:50:00;101368.94;;;19.64;38.37
48015;BME280;33780;51.034;7.120;2023-05-19T12:52:27;101354.28;;;19.73;37.42
48015;BME280;33780;51.034;7.120;2023-05-19T12:55:12;101363.63;;;19.78;36.03
48015;BME280;33780;51.034;7.120;2023-05-19T12:57:43;101358.81;;;19.88;36.52
48015;BME280;33780;51.034;7.120;2023-05-19T13:00:14;101356.06;;;19.97;36.25
48015;BME280;33780;51.034;7.120;2023-05-19T13:05:27;101360.56;;;20.12;37.15
48015;BME280;33780;51.034;7.120;2023-05-19T13:07:56;101348.00;;;20.11;35.86
48015;BME280;33780;51.034;7.120;2023-05-19T13:10:21;101349.00;;;20.10;35.92
48015;BME280;33780;51.034;7.120;2023-05-19T13:12:47;101362.59;;;20.10;34.96
48015;BME280;33780;51.034;7.120;2023-05-19T13:15:12;101355.91;;;20.21;35.68